sensor_id;sensor_type;location;lat;lon;timestamp;P1;durP1;ratioP1;P2;durP2;ratioP2
74503;SDS011;62988;55.776;37.544;2023-08-12T00:01:00;13.83;;;8.33;;
74503;SDS011;62988;55.776;37.544;2023-08-12T00:03:26;13.00;;;7.95;;
74503;SDS011;62988;55.776;37.544;2023-08-12T00:05:52;8.85;;;7.03;;
74503;SDS011;62988;55.776;37.544;2023-08-12T00:08:17;20.45;;;8.25;;
74503;SDS011;62988;55.776;37.544;2023-08-12T00:10:43;12.03;;;7.93;;
74503;SDS011;62988;55.776;37.544;2023-08-12T00:13:08;19.45;;;8.68;;
74503;SDS011;62988;55.776;37.544;2023-08-12T00:15:34;11.32;;;7.68;;
74503;SDS011;62988;55.776;37.544;2023-08-12T00:17:59;10.32;;;7.85;;
74503;SDS011;62988;55.776;37.544;2023-08-12T00:20:24;14.00;;;8.43;;
74503;SDS011;62988;55.776;37.544;2023-08-12T00:22:50;11.03;;;7.63;;
74503;SDS011;62988;55.776;37.544;2023-08-12T00:25:15;19.80;;;8.20;;
74503;SDS011;62988;55.776;37.544;2023-08-12T00:27:40;13.80;;;7.63;;
74503;SDS011;62988;55.776;37.544;2023-08-12T00:30:06;11.77;;;8.10;;
74503;SDS011;62988;55.776;37.544;2023-08-12T00:32:31;10.23;;;7.95;;
74503;SDS011;62988;55.776;37.544;2023-08-12T00:34:56;13.33;;;7.43;;
74503;SDS011;62988;55.776;37.544;2023-08-12T00:37:22;12.60;;;7.93;;
74503;SDS011;62988;55.776;37.544;2023-08-12T00:39:47;11.80;;;8.00;;
74503;SDS011;62988;55.776;37.544;2023-08-12T00:42:12;12.83;;;8.47;;
74503;SDS011;62988;55.776;37.544;2023-08-12T00:44:38;12.63;;;7.87;;
74503;SDS011;62988;55.776;37.544;2023-08-12T00:47:03;10.57;;;8.33;;
74503;SDS011;62988;55.776;37.544;2023-08-12T00:49:28;11.77;;;8.38;;
74503;SDS011;62988;55.776;37.544;2023-08-12T00:51:54;13.73;;;8.40;;
74503;SDS011;62988;55.776;37.544;2023-08-12T00:54:19;11.63;;;8.10;;
74503;SDS011;62988;55.776;37.544;2023-08-12T00:56:48;12.32;;;8.18;;
74503;SDS011;62988;55.776;37.544;2023-08-12T00:59:13;14.48;;;8.57;;
74503;SDS011;62988;55.776;37.544;2023-08-12T01:01:40;11.45;;;8.60;;
74503;SDS011;62988;55.776;37.544;2023-08-12T01:04:06;12.40;;;8.52;;
74503;SDS011;62988;55.776;37.544;2023-08-12T01:06:32;11.68;;;7.88;;
74503;SDS011;62988;55.776;37.544;2023-08-12T01:08:58;15.45;;;8.48;;
74503;SDS011;62988;55.776;37.544;2023-08-12T01:11:34;13.77;;;8.32;;
74503;SDS011;62988;55.776;37.544;2023-08-12T01:14:22;12.52;;;8.30;;
74503;SDS011;62988;55.776;37.544;2023-08-12T01:16:46;12.50;;;7.95;;
74503;SDS011;62988;55.776;37.544;2023-08-12T01:19:18;12.20;;;8.20;;
74503;SDS011;62988;55.776;37.544;2023-08-12T01:21:46;14.73;;;8.10;;
74503;SDS011;62988;55.776;37.544;2023-08-12T01:24:12;15.38;;;8.43;;
74503;SDS011;62988;55.776;37.544;2023-08-12T01:26:37;11.47;;;7.70;;
74503;SDS011;62988;55.776;37.544;2023-08-12T01:29:03;13.30;;;8.90;;
74503;SDS011;62988;55.776;37.544;2023-08-12T01:31:32;14.20;;;8.77;;
74503;SDS011;62988;55.776;37.544;2023-08-12T01:34:04;12.43;;;8.45;;
74503;SDS011;62988;55.776;37.544;2023-08-12T01:36:32;14.93;;;7.97;;
74503;SDS011;62988;55.776;37.544;2023-08-12T01:38:59;14.48;;;8.90;;
74503;SDS011;62988;55.776;37.544;2023-08-12T01:41:25;12.80;;;7.65;;
74503;SDS011;62988;55.776;37.544;2023-08-12T01:43:51;15.25;;;8.70;;
74503;SDS011;62988;55.776;37.544;2023-08-12T01:46:16;11.25;;;8.80;;
74503;SDS011;62988;55.776;37.544;2023-08-12T01:48:42;10.20;;;8.27;;
74503;SDS011;62988;55.776;37.544;2023-08-12T01:51:07;14.33;;;8.33;;
74503;SDS011;62988;55.776;37.544;2023-08-12T01:53:33;13.60;;;9.00;;
74503;SDS011;62988;55.776;37.544;2023-08-12T01:55:58;12.90;;;8.10;;
74503;SDS011;62988;55.776;37.544;2023-08-12T01:58:24;12.98;;;8.63;;
74503;SDS011;62988;55.776;37.544;2023-08-12T02:00:51;13.00;;;7.85;;
74503;SDS011;62988;55.776;37.544;2023-08-12T02:03:16;13.10;;;8.40;;
74503;SDS011;62988;55.776;37.544;2023-08-12T02:05:42;12.97;;;9.47;;
74503;SDS011;62988;55.776;37.544;2023-08-12T02:08:08;19.30;;;9.02;;
74503;SDS011;62988;55.776;37.544;2023-08-12T02:10:34;12.15;;;8.35;;
74503;SDS011;62988;55.776;37.544;2023-08-12T02:12:59;12.25;;;8.88;;
74503;SDS011;62988;55.776;37.544;2023-08-12T02:15:24;12.53;;;8.93;;
74503;SDS011;62988;55.776;37.544;2023-08-12T02:17:50;16.50;;;9.00;;
74503;SDS011;62988;55.776;37.544;2023-08-12T02:20:15;15.60;;;8.90;;
74503;SDS011;62988;55.776;37.544;2023-08-12T02:22:40;13.77;;;8.77;;
74503;SDS011;62988;55.776;37.544;2023-08-12T02:25:06;11.73;;;9.23;;
74503;SDS011;62988;55.776;37.544;2023-08-12T02:27:31;15.65;;;9.05;;
74503;SDS011;62988;55.776;37.544;2023-08-12T02:29:56;15.73;;;8.97;;
74503;SDS011;62988;55.776;37.544;2023-08-12T02:32:22;18.00;;;9.17;;
74503;SDS011;62988;55.776;37.544;2023-08-12T02:34:47;11.80;;;8.93;;
74503;SDS011;62988;55.776;37.544;2023-08-12T02:37:12;11.97;;;8.17;;
74503;SDS011;62988;55.776;37.544;2023-08-12T02:39:38;16.15;;;8.95;;
74503;SDS011;62988;55.776;37.544;2023-08-12T02:42:03;16.30;;;8.75;;
74503;SDS011;62988;55.776;37.544;2023-08-12T02:44:28;13.35;;;9.35;;
74503;SDS011;62988;55.776;37.544;2023-08-12T02:46:54;11.70;;;8.33;;
74503;SDS011;62988;55.776;37.544;2023-08-12T02:49:19;15.33;;;9.33;;
74503;SDS011;62988;55.776;37.544;2023-08-12T02:51:44;13.37;;;9.17;;
74503;SDS011;62988;55.776;37.544;2023-08-12T02:54:09;15.73;;;8.33;;
74503;SDS011;62988;55.776;37.544;2023-08-12T02:56:35;14.20;;;9.47;;
74503;SDS011;62988;55.776;37.544;2023-08-12T02:59:00;14.40;;;8.97;;
74503;SDS011;62988;55.776;37.544;2023-08-12T03:01:25;14.40;;;9.10;;
74503;SDS011;62988;55.776;37.544;2023-08-12T03:03:52;17.00;;;9.30;;
74503;SDS011;62988;55.776;37.544;2023-08-12T03:06:17;13.75;;;8.77;;
74503;SDS011;62988;55.776;37.544;2023-08-12T03:08:43;11.80;;;8.20;;
74503;SDS011;62988;55.776;37.544;2023-08-12T03:11:08;12.60;;;9.17;;
74503;SDS011;62988;55.776;37.544;2023-08-12T03:13:33;13.63;;;8.80;;
74503;SDS011;62988;55.776;37.544;2023-08-12T03:15:59;14.67;;;9.00;;
74503;SDS011;62988;55.776;37.544;2023-08-12T03:18:24;14.33;;;8.87;;
74503;SDS011;62988;55.776;37.544;2023-08-12T03:20:49;14.75;;;8.20;;
74503;SDS011;62988;55.776;37.544;2023-08-12T03:23:15;11.67;;;8.27;;
74503;SDS011;62988;55.776;37.544;2023-08-12T03:25:40;14.02;;;9.02;;
74503;SDS011;62988;55.776;37.544;2023-08-12T03:28:05;11.97;;;8.37;;
74503;SDS011;62988;55.776;37.544;2023-08-12T03:30:31;12.90;;;8.87;;
74503;SDS011;62988;55.776;37.544;2023-08-12T03:32:56;11.90;;;8.57;;
74503;SDS011;62988;55.776;37.544;2023-08-12T03:35:21;14.57;;;9.35;;
74503;SDS011;62988;55.776;37.544;2023-08-12T03:37:47;12.77;;;8.70;;
74503;SDS011;62988;55.776;37.544;2023-08-12T03:40:12;13.03;;;8.77;;
74503;SDS011;62988;55.776;37.544;2023-08-12T03:42:37;15.93;;;8.40;;
74503;SDS011;62988;55.776;37.544;2023-08-12T03:45:03;13.90;;;8.27;;
74503;SDS011;62988;55.776;37.544;2023-08-12T03:47:28;13.40;;;9.25;;
74503;SDS011;62988;55.776;37.544;2023-08-12T03:49:53;14.87;;;9.57;;
74503;SDS011;62988;55.776;37.544;2023-08-12T03:52:19;17.95;;;8.65;;
74503;SDS011;62988;55.776;37.544;2023-08-12T03:54:44;13.00;;;9.37;;
74503;SDS011;62988;55.776;37.544;2023-08-12T03:57:10;14.15;;;8.90;;
74503;SDS011;62988;55.776;37.544;2023-08-12T03:59:35;14.68;;;8.73;;
74503;SDS011;62988;55.776;37.544;2023-08-12T04:02:00;14.93;;;8.77;;
74503;SDS011;62988;55.776;37.544;2023-08-12T04:04:26;11.73;;;8.33;;
74503;SDS011;62988;55.776;37.544;2023-08-12T04:06:51;14.00;;;9.27;;
74503;SDS011;62988;55.776;37.544;2023-08-12T04:09:17;11.77;;;9.00;;
74503;SDS011;62988;55.776;37.544;2023-08-12T04:11:43;15.70;;;8.90;;
74503;SDS011;62988;55.776;37.544;2023-08-12T04:14:08;14.52;;;9.05;;
74503;SDS011;62988;55.776;37.544;2023-08-12T04:16:34;13.07;;;8.73;;
74503;SDS011;62988;55.776;37.544;2023-08-12T04:18:59;13.37;;;8.47;;
74503;SDS011;62988;55.776;37.544;2023-08-12T04:21:24;11.80;;;8.60;;
74503;SDS011;62988;55.776;37.544;2023-08-12T04:23:50;17.90;;;9.13;;
74503;SDS011;62988;55.776;37.544;2023-08-12T04:26:15;18.53;;;9.40;;
74503;SDS011;62988;55.776;37.544;2023-08-12T04:28:40;14.03;;;8.77;;
74503;SDS011;62988;55.776;37.544;2023-08-12T04:31:06;12.27;;;8.33;;
74503;SDS011;62988;55.776;37.544;2023-08-12T04:33:32;11.18;;;7.30;;
74503;SDS011;62988;55.776;37.544;2023-08-12T04:35:57;14.73;;;7.57;;
74503;SDS011;62988;55.776;37.544;2023-08-12T04:38:23;10.38;;;8.10;;
74503;SDS011;62988;55.776;37.544;2023-08-12T04:40:48;11.73;;;8.30;;
74503;SDS011;62988;55.776;37.544;2023-08-12T04:43:14;12.65;;;8.88;;
74503;SDS011;62988;55.776;37.544;2023-08-12T04:45:39;16.97;;;7.80;;
74503;SDS011;62988;55.776;37.544;2023-08-12T04:48:05;14.80;;;7.73;;
74503;SDS011;62988;55.776;37.544;2023-08-12T04:50:31;12.57;;;8.07;;
74503;SDS011;62988;55.776;37.544;2023-08-12T04:52:56;13.55;;;8.85;;
74503;SDS011;62988;55.776;37.544;2023-08-12T04:55:21;17.50;;;8.65;;
74503;SDS011;62988;55.776;37.544;2023-08-12T04:57:47;11.87;;;7.70;;
74503;SDS011;62988;55.776;37.544;2023-08-12T05:00:12;10.23;;;8.00;;
74503;SDS011;62988;55.776;37.544;2023-08-12T05:02:37;15.77;;;7.63;;
74503;SDS011;62988;55.776;37.544;2023-08-12T05:05:03;12.97;;;7.47;;
74503;SDS011;62988;55.776;37.544;2023-08-12T05:07:28;10.50;;;7.35;;
74503;SDS011;62988;55.776;37.544;2023-08-12T05:09:54;11.87;;;8.00;;
74503;SDS011;62988;55.776;37.544;2023-08-12T05:12:19;9.00;;;7.23;;
74503;SDS011;62988;55.776;37.544;2023-08-12T05:14:44;14.00;;;7.60;;
74503;SDS011;62988;55.776;37.544;2023-08-12T05:17:09;15.27;;;7.37;;
74503;SDS011;62988;55.776;37.544;2023-08-12T05:19:35;9.80;;;7.43;;
74503;SDS011;62988;55.776;37.544;2023-08-12T05:22:00;10.43;;;7.17;;
74503;SDS011;62988;55.776;37.544;2023-08-12T05:24:25;12.27;;;7.68;;
74503;SDS011;62988;55.776;37.544;2023-08-12T05:26:51;10.80;;;8.20;;
74503;SDS011;62988;55.776;37.544;2023-08-12T05:29:16;9.17;;;7.10;;
74503;SDS011;62988;55.776;37.544;2023-08-12T05:31:41;13.43;;;7.53;;
74503;SDS011;62988;55.776;37.544;2023-08-12T05:34:07;13.03;;;7.80;;
74503;SDS011;62988;55.776;37.544;2023-08-12T05:36:32;13.90;;;7.90;;
74503;SDS011;62988;55.776;37.544;2023-08-12T05:38:58;12.87;;;7.60;;
74503;SDS011;62988;55.776;37.544;2023-08-12T05:41:23;11.82;;;7.72;;
74503;SDS011;62988;55.776;37.544;2023-08-12T05:43:48;11.97;;;7.80;;
74503;SDS011;62988;55.776;37.544;2023-08-12T05:46:14;9.90;;;7.07;;
74503;SDS011;62988;55.776;37.544;2023-08-12T05:48:39;11.93;;;7.57;;
74503;SDS011;62988;55.776;37.544;2023-08-12T05:51:04;12.33;;;7.80;;
74503;SDS011;62988;55.776;37.544;2023-08-12T05:53:30;15.50;;;8.67;;
74503;SDS011;62988;55.776;37.544;2023-08-12T05:55:55;10.57;;;7.17;;
74503;SDS011;62988;55.776;37.544;2023-08-12T05:58:20;9.67;;;6.90;;
74503;SDS011;62988;55.776;37.544;2023-08-12T06:00:46;10.82;;;7.45;;
74503;SDS011;62988;55.776;37.544;2023-08-12T06:03:11;10.03;;;6.30;;
74503;SDS011;62988;55.776;37.544;2023-08-12T06:05:37;11.02;;;7.25;;
74503;SDS011;62988;55.776;37.544;2023-08-12T06:08:02;9.43;;;7.10;;
74503;SDS011;62988;55.776;37.544;2023-08-12T06:10:28;13.70;;;7.00;;
74503;SDS011;62988;55.776;37.544;2023-08-12T06:12:53;11.70;;;7.50;;
74503;SDS011;62988;55.776;37.544;2023-08-12T06:15:18;9.97;;;7.03;;
74503;SDS011;62988;55.776;37.544;2023-08-12T06:17:43;10.53;;;6.97;;
74503;SDS011;62988;55.776;37.544;2023-08-12T06:20:09;13.67;;;7.87;;
74503;SDS011;62988;55.776;37.544;2023-08-12T06:22:34;8.85;;;6.72;;
74503;SDS011;62988;55.776;37.544;2023-08-12T06:25:00;13.83;;;6.93;;
74503;SDS011;62988;55.776;37.544;2023-08-12T06:27:25;11.93;;;6.47;;
74503;SDS011;62988;55.776;37.544;2023-08-12T06:29:51;13.02;;;7.20;;
74503;SDS011;62988;55.776;37.544;2023-08-12T06:32:16;10.93;;;6.88;;
74503;SDS011;62988;55.776;37.544;2023-08-12T06:34:41;12.27;;;6.83;;
74503;SDS011;62988;55.776;37.544;2023-08-12T06:37:07;16.03;;;7.50;;
74503;SDS011;62988;55.776;37.544;2023-08-12T06:39:32;16.13;;;6.50;;
74503;SDS011;62988;55.776;37.544;2023-08-12T06:41:57;8.07;;;5.57;;
74503;SDS011;62988;55.776;37.544;2023-08-12T06:44:24;13.75;;;7.40;;
74503;SDS011;62988;55.776;37.544;2023-08-12T06:46:49;12.68;;;6.28;;
74503;SDS011;62988;55.776;37.544;2023-08-12T06:49:15;17.63;;;7.67;;
74503;SDS011;62988;55.776;37.544;2023-08-12T06:51:40;17.17;;;7.85;;
74503;SDS011;62988;55.776;37.544;2023-08-12T06:54:05;14.43;;;7.07;;
74503;SDS011;62988;55.776;37.544;2023-08-12T06:56:31;11.10;;;6.67;;
74503;SDS011;62988;55.776;37.544;2023-08-12T06:58:56;8.73;;;6.70;;
74503;SDS011;62988;55.776;37.544;2023-08-12T07:01:21;10.37;;;6.40;;
74503;SDS011;62988;55.776;37.544;2023-08-12T07:03:47;12.50;;;6.60;;
74503;SDS011;62988;55.776;37.544;2023-08-12T07:06:12;10.03;;;5.93;;
74503;SDS011;62988;55.776;37.544;2023-08-12T07:08:37;12.60;;;6.50;;
74503;SDS011;62988;55.776;37.544;2023-08-12T07:11:02;10.93;;;7.30;;
74503;SDS011;62988;55.776;37.544;2023-08-12T07:13:29;12.57;;;7.05;;
74503;SDS011;62988;55.776;37.544;2023-08-12T07:15:54;10.70;;;6.77;;
74503;SDS011;62988;55.776;37.544;2023-08-12T07:18:20;9.53;;;7.03;;
74503;SDS011;62988;55.776;37.544;2023-08-12T07:20:45;14.63;;;7.13;;
74503;SDS011;62988;55.776;37.544;2023-08-12T07:23:10;14.67;;;7.20;;
74503;SDS011;62988;55.776;37.544;2023-08-12T07:25:36;8.47;;;5.80;;
74503;SDS011;62988;55.776;37.544;2023-08-12T07:28:01;17.17;;;7.03;;
74503;SDS011;62988;55.776;37.544;2023-08-12T07:30:26;12.50;;;6.60;;
74503;SDS011;62988;55.776;37.544;2023-08-12T07:32:51;15.30;;;6.70;;
74503;SDS011;62988;55.776;37.544;2023-08-12T07:35:17;11.13;;;6.80;;
74503;SDS011;62988;55.776;37.544;2023-08-12T07:37:42;13.87;;;6.87;;
74503;SDS011;62988;55.776;37.544;2023-08-12T07:40:08;13.20;;;7.23;;
74503;SDS011;62988;55.776;37.544;2023-08-12T07:42:34;14.32;;;8.25;;
74503;SDS011;62988;55.776;37.544;2023-08-12T07:44:59;10.70;;;6.97;;
74503;SDS011;62988;55.776;37.544;2023-08-12T07:47:24;9.50;;;6.60;;
74503;SDS011;62988;55.776;37.544;2023-08-12T07:49:49;13.83;;;6.77;;
74503;SDS011;62988;55.776;37.544;2023-08-12T07:52:15;11.10;;;7.30;;
74503;SDS011;62988;55.776;37.544;2023-08-12T07:54:40;14.63;;;7.15;;
74503;SDS011;62988;55.776;37.544;2023-08-12T07:57:05;15.47;;;7.73;;
74503;SDS011;62988;55.776;37.544;2023-08-12T07:59:31;18.60;;;7.57;;
74503;SDS011;62988;55.776;37.544;2023-08-12T08:01:56;14.90;;;7.70;;
74503;SDS011;62988;55.776;37.544;2023-08-12T08:04:21;21.40;;;8.63;;
74503;SDS011;62988;55.776;37.544;2023-08-12T08:06:47;23.73;;;7.87;;
74503;SDS011;62988;55.776;37.544;2023-08-12T08:09:12;23.80;;;7.80;;
74503;SDS011;62988;55.776;37.544;2023-08-12T08:11:37;16.40;;;7.13;;
74503;SDS011;62988;55.776;37.544;2023-08-12T08:14:03;17.70;;;9.00;;
74503;SDS011;62988;55.776;37.544;2023-08-12T08:16:28;14.77;;;8.18;;
74503;SDS011;62988;55.776;37.544;2023-08-12T08:18:53;14.60;;;7.90;;
74503;SDS011;62988;55.776;37.544;2023-08-12T08:21:19;13.43;;;8.03;;
74503;SDS011;62988;55.776;37.544;2023-08-12T08:23:44;15.45;;;8.80;;
74503;SDS011;62988;55.776;37.544;2023-08-12T08:26:09;13.57;;;8.37;;
74503;SDS011;62988;55.776;37.544;2023-08-12T08:28:35;15.30;;;8.80;;
74503;SDS011;62988;55.776;37.544;2023-08-12T08:31:00;25.90;;;9.77;;
74503;SDS011;62988;55.776;37.544;2023-08-12T08:33:26;12.95;;;9.45;;
74503;SDS011;62988;55.776;37.544;2023-08-12T08:35:51;18.65;;;9.68;;
74503;SDS011;62988;55.776;37.544;2023-08-12T08:38:16;14.43;;;9.60;;
74503;SDS011;62988;55.776;37.544;2023-08-12T08:40:42;12.32;;;8.60;;
74503;SDS011;62988;55.776;37.544;2023-08-12T08:43:07;17.58;;;9.25;;
74503;SDS011;62988;55.776;37.544;2023-08-12T08:45:33;17.45;;;9.32;;
74503;SDS011;62988;55.776;37.544;2023-08-12T08:47:59;18.10;;;8.68;;
74503;SDS011;62988;55.776;37.544;2023-08-12T08:50:25;13.43;;;8.15;;
74503;SDS011;62988;55.776;37.544;2023-08-12T08:52:50;14.07;;;8.68;;
74503;SDS011;62988;55.776;37.544;2023-08-12T08:55:16;12.02;;;8.43;;
74503;SDS011;62988;55.776;37.544;2023-08-12T08:57:42;13.33;;;8.77;;
74503;SDS011;62988;55.776;37.544;2023-08-12T09:00:08;19.60;;;8.10;;
74503;SDS011;62988;55.776;37.544;2023-08-12T09:02:35;18.75;;;8.60;;
74503;SDS011;62988;55.776;37.544;2023-08-12T09:05:01;13.63;;;8.70;;
74503;SDS011;62988;55.776;37.544;2023-08-12T09:07:27;14.13;;;8.52;;
74503;SDS011;62988;55.776;37.544;2023-08-12T09:09:52;14.50;;;8.53;;
74503;SDS011;62988;55.776;37.544;2023-08-12T09:12:19;13.57;;;7.82;;
74503;SDS011;62988;55.776;37.544;2023-08-12T09:14:45;16.70;;;8.13;;
74503;SDS011;62988;55.776;37.544;2023-08-12T09:17:10;11.87;;;8.10;;
74503;SDS011;62988;55.776;37.544;2023-08-12T09:19:35;13.10;;;7.78;;
74503;SDS011;62988;55.776;37.544;2023-08-12T09:22:02;11.13;;;8.38;;
74503;SDS011;62988;55.776;37.544;2023-08-12T09:24:28;10.73;;;7.50;;
74503;SDS011;62988;55.776;37.544;2023-08-12T09:26:55;15.82;;;8.20;;
74503;SDS011;62988;55.776;37.544;2023-08-12T09:29:23;14.73;;;8.23;;
74503;SDS011;62988;55.776;37.544;2023-08-12T09:34:14;16.20;;;8.40;;
74503;SDS011;62988;55.776;37.544;2023-08-12T09:36:40;15.13;;;8.97;;
74503;SDS011;62988;55.776;37.544;2023-08-12T09:39:06;16.48;;;9.32;;
74503;SDS011;62988;55.776;37.544;2023-08-12T09:41:33;14.13;;;9.50;;
74503;SDS011;62988;55.776;37.544;2023-08-12T09:43:59;15.35;;;9.13;;
74503;SDS011;62988;55.776;37.544;2023-08-12T09:46:26;14.80;;;9.38;;
74503;SDS011;62988;55.776;37.544;2023-08-12T09:48:52;11.32;;;8.38;;
74503;SDS011;62988;55.776;37.544;2023-08-12T09:51:18;12.30;;;8.55;;
74503;SDS011;62988;55.776;37.544;2023-08-12T09:53:44;13.68;;;9.13;;
74503;SDS011;62988;55.776;37.544;2023-08-12T09:56:11;20.10;;;8.88;;
74503;SDS011;62988;55.776;37.544;2023-08-12T09:58:37;15.02;;;8.65;;
74503;SDS011;62988;55.776;37.544;2023-08-12T10:01:03;12.55;;;7.90;;
74503;SDS011;62988;55.776;37.544;2023-08-12T10:03:28;12.15;;;8.38;;
74503;SDS011;62988;55.776;37.544;2023-08-12T10:05:54;12.57;;;9.27;;
74503;SDS011;62988;55.776;37.544;2023-08-12T10:08:20;15.48;;;9.23;;
74503;SDS011;62988;55.776;37.544;2023-08-12T10:10:45;14.77;;;9.47;;
74503;SDS011;62988;55.776;37.544;2023-08-12T10:13:11;12.32;;;9.00;;
74503;SDS011;62988;55.776;37.544;2023-08-12T10:15:37;13.35;;;8.68;;
74503;SDS011;62988;55.776;37.544;2023-08-12T10:18:03;15.27;;;9.07;;
74503;SDS011;62988;55.776;37.544;2023-08-12T10:20:28;15.43;;;8.80;;
74503;SDS011;62988;55.776;37.544;2023-08-12T10:22:54;12.27;;;9.45;;
74503;SDS011;62988;55.776;37.544;2023-08-12T10:25:20;12.35;;;8.95;;
74503;SDS011;62988;55.776;37.544;2023-08-12T10:27:49;15.93;;;9.77;;
74503;SDS011;62988;55.776;37.544;2023-08-12T10:30:14;12.30;;;8.25;;
74503;SDS011;62988;55.776;37.544;2023-08-12T10:32:40;18.42;;;9.35;;
74503;SDS011;62988;55.776;37.544;2023-08-12T10:35:05;12.43;;;8.63;;
74503;SDS011;62988;55.776;37.544;2023-08-12T10:37:32;17.88;;;9.73;;
74503;SDS011;62988;55.776;37.544;2023-08-12T10:39:58;14.80;;;9.52;;
74503;SDS011;62988;55.776;37.544;2023-08-12T10:45:13;13.13;;;9.80;;
74503;SDS011;62988;55.776;37.544;2023-08-12T10:47:42;15.82;;;9.95;;
74503;SDS011;62988;55.776;37.544;2023-08-12T10:50:21;14.40;;;9.93;;
74503;SDS011;62988;55.776;37.544;2023-08-12T10:52:47;13.38;;;10.00;;
74503;SDS011;62988;55.776;37.544;2023-08-12T10:55:16;18.30;;;9.80;;
74503;SDS011;62988;55.776;37.544;2023-08-12T10:57:41;19.10;;;9.98;;
74503;SDS011;62988;55.776;37.544;2023-08-12T11:00:10;18.47;;;9.37;;
74503;SDS011;62988;55.776;37.544;2023-08-12T11:02:36;15.60;;;10.35;;
74503;SDS011;62988;55.776;37.544;2023-08-12T11:07:29;14.50;;;10.77;;
74503;SDS011;62988;55.776;37.544;2023-08-12T11:10:00;14.80;;;10.40;;
74503;SDS011;62988;55.776;37.544;2023-08-12T11:12:38;19.45;;;10.18;;
74503;SDS011;62988;55.776;37.544;2023-08-12T11:15:03;16.02;;;11.00;;
74503;SDS011;62988;55.776;37.544;2023-08-12T11:17:36;17.75;;;10.98;;
74503;SDS011;62988;55.776;37.544;2023-08-12T11:20:02;15.15;;;9.77;;
74503;SDS011;62988;55.776;37.544;2023-08-12T11:22:29;14.73;;;9.80;;
74503;SDS011;62988;55.776;37.544;2023-08-12T11:24:58;17.00;;;10.77;;
74503;SDS011;62988;55.776;37.544;2023-08-12T11:27:23;16.30;;;10.25;;
74503;SDS011;62988;55.776;37.544;2023-08-12T11:29:51;17.70;;;11.87;;
74503;SDS011;62988;55.776;37.544;2023-08-12T11:32:17;15.35;;;9.93;;
74503;SDS011;62988;55.776;37.544;2023-08-12T11:34:45;17.05;;;10.52;;
74503;SDS011;62988;55.776;37.544;2023-08-12T11:37:11;20.10;;;11.50;;
74503;SDS011;62988;55.776;37.544;2023-08-12T11:39:36;18.27;;;10.97;;
74503;SDS011;62988;55.776;37.544;2023-08-12T11:42:02;19.20;;;11.55;;
74503;SDS011;62988;55.776;37.544;2023-08-12T11:44:28;22.65;;;10.00;;
74503;SDS011;62988;55.776;37.544;2023-08-12T11:46:54;16.45;;;9.43;;
74503;SDS011;62988;55.776;37.544;2023-08-12T11:49:25;14.37;;;10.40;;
74503;SDS011;62988;55.776;37.544;2023-08-12T11:51:50;14.75;;;9.55;;
74503;SDS011;62988;55.776;37.544;2023-08-12T11:54:28;14.40;;;10.23;;
74503;SDS011;62988;55.776;37.544;2023-08-12T11:56:53;16.33;;;10.82;;
74503;SDS011;62988;55.776;37.544;2023-08-12T11:59:23;14.00;;;10.05;;
74503;SDS011;62988;55.776;37.544;2023-08-12T12:01:48;18.65;;;10.23;;
74503;SDS011;62988;55.776;37.544;2023-08-12T12:04:14;17.87;;;10.47;;
74503;SDS011;62988;55.776;37.544;2023-08-12T12:06:39;17.02;;;10.70;;
74503;SDS011;62988;55.776;37.544;2023-08-12T12:09:06;14.47;;;9.13;;
74503;SDS011;62988;55.776;37.544;2023-08-12T12:11:35;13.73;;;9.90;;
74503;SDS011;62988;55.776;37.544;2023-08-12T12:14:05;19.95;;;11.90;;
74503;SDS011;62988;55.776;37.544;2023-08-12T12:16:37;14.77;;;9.57;;
74503;SDS011;62988;55.776;37.544;2023-08-12T12:19:03;15.60;;;10.57;;
74503;SDS011;62988;55.776;37.544;2023-08-12T12:21:30;19.80;;;10.50;;
74503;SDS011;62988;55.776;37.544;2023-08-12T12:23:55;12.98;;;9.43;;
74503;SDS011;62988;55.776;37.544;2023-08-12T12:26:21;17.45;;;10.45;;
74503;SDS011;62988;55.776;37.544;2023-08-12T12:28:47;15.63;;;11.13;;
74503;SDS011;62988;55.776;37.544;2023-08-12T12:31:12;14.45;;;9.95;;
74503;SDS011;62988;55.776;37.544;2023-08-12T12:33:38;12.43;;;9.10;;
74503;SDS011;62988;55.776;37.544;2023-08-12T12:36:03;16.23;;;10.80;;
74503;SDS011;62988;55.776;37.544;2023-08-12T12:38:29;15.90;;;7.93;;
74503;SDS011;62988;55.776;37.544;2023-08-12T12:40:54;15.30;;;9.57;;
74503;SDS011;62988;55.776;37.544;2023-08-12T12:43:19;16.37;;;9.57;;
74503;SDS011;62988;55.776;37.544;2023-08-12T12:45:45;16.33;;;8.68;;
74503;SDS011;62988;55.776;37.544;2023-08-12T12:48:10;14.17;;;9.17;;
74503;SDS011;62988;55.776;37.544;2023-08-12T12:50:35;16.20;;;8.85;;
74503;SDS011;62988;55.776;37.544;2023-08-12T12:53:02;16.40;;;8.75;;
74503;SDS011;62988;55.776;37.544;2023-08-12T12:55:28;21.95;;;10.07;;
74503;SDS011;62988;55.776;37.544;2023-08-12T12:57:53;14.73;;;9.17;;
74503;SDS011;62988;55.776;37.544;2023-08-12T13:00:18;15.83;;;8.73;;
74503;SDS011;62988;55.776;37.544;2023-08-12T13:02:44;21.70;;;10.30;;
74503;SDS011;62988;55.776;37.544;2023-08-12T13:05:09;14.33;;;7.83;;
74503;SDS011;62988;55.776;37.544;2023-08-12T13:07:34;14.43;;;8.93;;
74503;SDS011;62988;55.776;37.544;2023-08-12T13:10:00;14.73;;;8.40;;
74503;SDS011;62988;55.776;37.544;2023-08-12T13:12:26;13.40;;;7.68;;
74503;SDS011;62988;55.776;37.544;2023-08-12T13:14:51;14.23;;;8.57;;
74503;SDS011;62988;55.776;37.544;2023-08-12T13:17:17;15.37;;;8.47;;
74503;SDS011;62988;55.776;37.544;2023-08-12T13:19:42;13.50;;;8.60;;
74503;SDS011;62988;55.776;37.544;2023-08-12T13:22:07;13.53;;;7.90;;
74503;SDS011;62988;55.776;37.544;2023-08-12T13:24:32;10.70;;;7.23;;
74503;SDS011;62988;55.776;37.544;2023-08-12T13:27:04;15.37;;;8.00;;
74503;SDS011;62988;55.776;37.544;2023-08-12T13:29:29;12.00;;;7.78;;
74503;SDS011;62988;55.776;37.544;2023-08-12T13:31:56;18.02;;;8.52;;
74503;SDS011;62988;55.776;37.544;2023-08-12T13:34:22;12.27;;;9.00;;
74503;SDS011;62988;55.776;37.544;2023-08-12T13:36:47;15.02;;;9.82;;
74503;SDS011;62988;55.776;37.544;2023-08-12T13:39:12;19.73;;;9.87;;
74503;SDS011;62988;55.776;37.544;2023-08-12T13:41:41;13.57;;;8.37;;
74503;SDS011;62988;55.776;37.544;2023-08-12T13:44:08;13.68;;;8.80;;
74503;SDS011;62988;55.776;37.544;2023-08-12T13:46:33;14.40;;;9.23;;
74503;SDS011;62988;55.776;37.544;2023-08-12T13:48:59;14.93;;;8.83;;
74503;SDS011;62988;55.776;37.544;2023-08-12T13:51:24;13.00;;;8.30;;
74503;SDS011;62988;55.776;37.544;2023-08-12T13:53:49;14.67;;;9.57;;
74503;SDS011;62988;55.776;37.544;2023-08-12T13:56:15;16.00;;;9.90;;
74503;SDS011;62988;55.776;37.544;2023-08-12T13:58:41;15.57;;;9.48;;
74503;SDS011;62988;55.776;37.544;2023-08-12T14:01:06;12.27;;;8.80;;
74503;SDS011;62988;55.776;37.544;2023-08-12T14:03:32;14.80;;;9.77;;
74503;SDS011;62988;55.776;37.544;2023-08-12T14:05:57;16.38;;;10.40;;
74503;SDS011;62988;55.776;37.544;2023-08-12T14:08:23;16.13;;;9.10;;
74503;SDS011;62988;55.776;37.544;2023-08-12T14:10:48;15.97;;;10.13;;
74503;SDS011;62988;55.776;37.544;2023-08-12T14:13:15;18.88;;;10.02;;
74503;SDS011;62988;55.776;37.544;2023-08-12T14:15:40;17.33;;;10.70;;
74503;SDS011;62988;55.776;37.544;2023-08-12T14:18:05;18.33;;;10.05;;
74503;SDS011;62988;55.776;37.544;2023-08-12T14:20:31;13.50;;;8.83;;